sensor_id;sensor_type;location;lat;lon;timestamp;P1;durP1;ratioP1;P2;durP2;ratioP2
79702;SDS011;69172;52.352;5.006;2023-11-21T00:00:46;21.42;;;8.75;;
79702;SDS011;69172;52.352;5.006;2023-11-21T00:03:12;23.95;;;10.70;;
79702;SDS011;69172;52.352;5.006;2023-11-21T00:05:41;19.17;;;8.88;;
79702;SDS011;69172;52.352;5.006;2023-11-21T00:08:07;24.35;;;8.93;;
79702;SDS011;69172;52.352;5.006;2023-11-21T00:10:33;26.73;;;8.85;;
79702;SDS011;69172;52.352;5.006;2023-11-21T00:12:59;21.95;;;9.35;;
79702;SDS011;69172;52.352;5.006;2023-11-21T00:15:24;19.63;;;8.60;;
79702;SDS011;69172;52.352;5.006;2023-11-21T00:17:51;21.85;;;8.27;;
79702;SDS011;69172;52.352;5.006;2023-11-21T00:20:16;21.73;;;7.60;;
79702;SDS011;69172;52.352;5.006;2023-11-21T00:22:42;21.45;;;8.13;;
79702;SDS011;69172;52.352;5.006;2023-11-21T00:25:07;18.33;;;8.25;;
79702;SDS011;69172;52.352;5.006;2023-11-21T00:27:34;18.63;;;8.80;;
79702;SDS011;69172;52.352;5.006;2023-11-21T00:30:00;23.75;;;7.82;;
79702;SDS011;69172;52.352;5.006;2023-11-21T00:32:26;19.08;;;8.05;;
79702;SDS011;69172;52.352;5.006;2023-11-21T00:34:51;18.38;;;8.45;;
79702;SDS011;69172;52.352;5.006;2023-11-21T00:37:16;19.05;;;8.02;;
79702;SDS011;69172;52.352;5.006;2023-11-21T00:39:42;18.23;;;7.90;;
79702;SDS011;69172;52.352;5.006;2023-11-21T00:42:07;17.17;;;7.70;;
79702;SDS011;69172;52.352;5.006;2023-11-21T00:44:33;20.00;;;7.80;;
79702;SDS011;69172;52.352;5.006;2023-11-21T00:47:05;21.45;;;7.90;;
79702;SDS011;69172;52.352;5.006;2023-11-21T00:49:37;20.52;;;7.82;;
79702;SDS011;69172;52.352;5.006;2023-11-21T00:52:04;18.63;;;6.97;;
79702;SDS011;69172;52.352;5.006;2023-11-21T00:54:31;21.10;;;7.97;;
79702;SDS011;69172;52.352;5.006;2023-11-21T00:56:56;20.90;;;8.23;;
79702;SDS011;69172;52.352;5.006;2023-11-21T00:59:23;19.45;;;7.78;;
79702;SDS011;69172;52.352;5.006;2023-11-21T01:01:49;17.23;;;6.88;;
79702;SDS011;69172;52.352;5.006;2023-11-21T01:04:14;18.90;;;7.40;;
79702;SDS011;69172;52.352;5.006;2023-11-21T01:06:41;19.05;;;8.15;;
79702;SDS011;69172;52.352;5.006;2023-11-21T01:09:06;20.20;;;7.68;;
79702;SDS011;69172;52.352;5.006;2023-11-21T01:11:34;16.48;;;7.80;;
79702;SDS011;69172;52.352;5.006;2023-11-21T01:14:01;22.25;;;7.40;;
79702;SDS011;69172;52.352;5.006;2023-11-21T01:16:28;18.40;;;7.10;;
79702;SDS011;69172;52.352;5.006;2023-11-21T01:18:54;17.88;;;7.60;;
79702;SDS011;69172;52.352;5.006;2023-11-21T01:21:19;21.10;;;8.32;;
79702;SDS011;69172;52.352;5.006;2023-11-21T01:23:44;18.73;;;7.25;;
79702;SDS011;69172;52.352;5.006;2023-11-21T01:26:10;16.55;;;7.07;;
79702;SDS011;69172;52.352;5.006;2023-11-21T01:28:35;16.60;;;7.53;;
79702;SDS011;69172;52.352;5.006;2023-11-21T01:31:01;19.80;;;7.25;;
79702;SDS011;69172;52.352;5.006;2023-11-21T01:33:26;19.77;;;7.10;;
79702;SDS011;69172;52.352;5.006;2023-11-21T01:35:59;20.10;;;7.22;;
79702;SDS011;69172;52.352;5.006;2023-11-21T01:38:25;19.52;;;7.43;;
79702;SDS011;69172;52.352;5.006;2023-11-21T01:40:51;20.40;;;6.75;;
79702;SDS011;69172;52.352;5.006;2023-11-21T01:43:16;16.52;;;6.97;;
79702;SDS011;69172;52.352;5.006;2023-11-21T01:45:42;20.48;;;7.47;;
79702;SDS011;69172;52.352;5.006;2023-11-21T01:48:07;21.55;;;7.40;;
79702;SDS011;69172;52.352;5.006;2023-11-21T01:50:35;17.45;;;7.10;;
79702;SDS011;69172;52.352;5.006;2023-11-21T01:53:02;20.05;;;7.22;;
79702;SDS011;69172;52.352;5.006;2023-11-21T01:55:28;18.70;;;7.07;;
79702;SDS011;69172;52.352;5.006;2023-11-21T01:57:55;16.70;;;7.32;;
79702;SDS011;69172;52.352;5.006;2023-11-21T02:00:22;21.40;;;7.65;;
79702;SDS011;69172;52.352;5.006;2023-11-21T02:02:48;22.35;;;6.95;;
79702;SDS011;69172;52.352;5.006;2023-11-21T02:05:16;14.77;;;6.80;;
79702;SDS011;69172;52.352;5.006;2023-11-21T02:07:46;20.67;;;6.75;;
79702;SDS011;69172;52.352;5.006;2023-11-21T02:10:17;17.35;;;6.95;;
79702;SDS011;69172;52.352;5.006;2023-11-21T02:12:47;17.80;;;6.60;;
79702;SDS011;69172;52.352;5.006;2023-11-21T02:15:15;22.25;;;6.88;;
79702;SDS011;69172;52.352;5.006;2023-11-21T02:17:45;17.00;;;6.75;;
79702;SDS011;69172;52.352;5.006;2023-11-21T02:20:17;14.82;;;5.88;;
79702;SDS011;69172;52.352;5.006;2023-11-21T02:22:43;22.17;;;6.68;;
79702;SDS011;69172;52.352;5.006;2023-11-21T02:25:23;18.35;;;6.82;;
79702;SDS011;69172;52.352;5.006;2023-11-21T02:27:54;15.07;;;6.15;;
79702;SDS011;69172;52.352;5.006;2023-11-21T02:30:22;14.20;;;6.22;;
79702;SDS011;69172;52.352;5.006;2023-11-21T02:32:48;18.30;;;6.70;;
79702;SDS011;69172;52.352;5.006;2023-11-21T02:35:14;19.73;;;6.35;;
79702;SDS011;69172;52.352;5.006;2023-11-21T02:37:41;19.95;;;6.18;;
79702;SDS011;69172;52.352;5.006;2023-11-21T02:40:10;15.50;;;5.90;;
79702;SDS011;69172;52.352;5.006;2023-11-21T02:42:37;17.17;;;6.55;;
79702;SDS011;69172;52.352;5.006;2023-11-21T02:45:07;19.38;;;7.50;;
79702;SDS011;69172;52.352;5.006;2023-11-21T02:47:34;14.60;;;6.18;;
79702;SDS011;69172;52.352;5.006;2023-11-21T02:50:00;16.63;;;6.65;;
79702;SDS011;69172;52.352;5.006;2023-11-21T02:52:32;18.15;;;6.40;;
79702;SDS011;69172;52.352;5.006;2023-11-21T02:55:04;23.75;;;7.82;;
79702;SDS011;69172;52.352;5.006;2023-11-21T02:57:35;14.60;;;6.32;;
79702;SDS011;69172;52.352;5.006;2023-11-21T03:00:01;22.15;;;7.38;;
79702;SDS011;69172;52.352;5.006;2023-11-21T03:02:27;20.13;;;7.45;;
79702;SDS011;69172;52.352;5.006;2023-11-21T03:04:53;15.52;;;6.00;;
79702;SDS011;69172;52.352;5.006;2023-11-21T03:07:18;19.40;;;6.50;;
79702;SDS011;69172;52.352;5.006;2023-11-21T03:09:45;16.42;;;6.15;;
79702;SDS011;69172;52.352;5.006;2023-11-21T03:12:11;17.77;;;6.82;;
79702;SDS011;69172;52.352;5.006;2023-11-21T03:14:37;18.95;;;6.97;;
79702;SDS011;69172;52.352;5.006;2023-11-21T03:17:03;18.05;;;6.50;;
79702;SDS011;69172;52.352;5.006;2023-11-21T03:19:29;18.17;;;7.43;;
79702;SDS011;69172;52.352;5.006;2023-11-21T03:21:55;16.77;;;8.00;;
79702;SDS011;69172;52.352;5.006;2023-11-21T03:24:20;18.42;;;6.50;;
79702;SDS011;69172;52.352;5.006;2023-11-21T03:26:47;21.45;;;7.68;;
79702;SDS011;69172;52.352;5.006;2023-11-21T03:29:13;18.35;;;7.30;;
79702;SDS011;69172;52.352;5.006;2023-11-21T03:31:39;16.55;;;6.55;;
79702;SDS011;69172;52.352;5.006;2023-11-21T03:34:05;21.73;;;6.93;;
79702;SDS011;69172;52.352;5.006;2023-11-21T03:36:31;16.98;;;7.07;;
79702;SDS011;69172;52.352;5.006;2023-11-21T03:38:56;21.00;;;6.72;;
79702;SDS011;69172;52.352;5.006;2023-11-21T03:41:29;18.48;;;6.93;;
79702;SDS011;69172;52.352;5.006;2023-11-21T03:43:54;15.25;;;6.65;;
79702;SDS011;69172;52.352;5.006;2023-11-21T03:46:19;22.33;;;7.30;;
79702;SDS011;69172;52.352;5.006;2023-11-21T03:48:45;17.92;;;7.15;;
79702;SDS011;69172;52.352;5.006;2023-11-21T03:51:10;19.08;;;6.80;;
79702;SDS011;69172;52.352;5.006;2023-11-21T03:53:35;21.20;;;6.70;;
79702;SDS011;69172;52.352;5.006;2023-11-21T03:56:02;20.90;;;6.53;;
79702;SDS011;69172;52.352;5.006;2023-11-21T03:58:28;19.23;;;6.90;;
79702;SDS011;69172;52.352;5.006;2023-11-21T04:00:54;20.23;;;7.22;;
79702;SDS011;69172;52.352;5.006;2023-11-21T04:03:20;18.13;;;7.00;;
79702;SDS011;69172;52.352;5.006;2023-11-21T04:05:45;19.83;;;7.13;;
79702;SDS011;69172;52.352;5.006;2023-11-21T04:08:11;15.80;;;6.15;;
79702;SDS011;69172;52.352;5.006;2023-11-21T04:10:36;24.17;;;8.25;;
79702;SDS011;69172;52.352;5.006;2023-11-21T04:13:01;21.60;;;7.88;;
79702;SDS011;69172;52.352;5.006;2023-11-21T04:15:27;19.48;;;6.80;;
79702;SDS011;69172;52.352;5.006;2023-11-21T04:17:52;22.60;;;7.38;;
79702;SDS011;69172;52.352;5.006;2023-11-21T04:20:18;19.25;;;6.93;;
79702;SDS011;69172;52.352;5.006;2023-11-21T04:22:43;27.00;;;8.23;;
79702;SDS011;69172;52.352;5.006;2023-11-21T04:25:15;20.52;;;7.43;;
79702;SDS011;69172;52.352;5.006;2023-11-21T04:27:41;19.00;;;7.25;;
79702;SDS011;69172;52.352;5.006;2023-11-21T04:30:09;20.02;;;6.70;;
79702;SDS011;69172;52.352;5.006;2023-11-21T04:32:36;20.38;;;7.00;;
79702;SDS011;69172;52.352;5.006;2023-11-21T04:35:01;14.30;;;5.95;;
79702;SDS011;69172;52.352;5.006;2023-11-21T04:37:27;16.05;;;5.13;;
79702;SDS011;69172;52.352;5.006;2023-11-21T04:39:52;15.77;;;6.10;;
79702;SDS011;69172;52.352;5.006;2023-11-21T04:42:18;18.15;;;6.15;;
79702;SDS011;69172;52.352;5.006;2023-11-21T04:44:43;18.30;;;8.40;;
79702;SDS011;69172;52.352;5.006;2023-11-21T04:47:09;17.70;;;6.80;;
79702;SDS011;69172;52.352;5.006;2023-11-21T04:49:35;18.27;;;5.90;;
79702;SDS011;69172;52.352;5.006;2023-11-21T04:52:00;14.48;;;5.97;;
79702;SDS011;69172;52.352;5.006;2023-11-21T04:54:26;14.63;;;5.13;;
79702;SDS011;69172;52.352;5.006;2023-11-21T04:56:52;11.65;;;5.13;;
79702;SDS011;69172;52.352;5.006;2023-11-21T04:59:17;12.68;;;5.15;;
79702;SDS011;69172;52.352;5.006;2023-11-21T05:01:43;12.93;;;4.10;;
79702;SDS011;69172;52.352;5.006;2023-11-21T05:04:11;10.63;;;3.45;;
79702;SDS011;69172;52.352;5.006;2023-11-21T05:06:36;9.75;;;2.90;;
79702;SDS011;69172;52.352;5.006;2023-11-21T05:09:01;11.02;;;2.70;;
79702;SDS011;69172;52.352;5.006;2023-11-21T05:11:27;10.15;;;2.50;;
79702;SDS011;69172;52.352;5.006;2023-11-21T05:13:54;8.25;;;2.58;;
79702;SDS011;69172;52.352;5.006;2023-11-21T05:16:21;8.85;;;2.88;;
79702;SDS011;69172;52.352;5.006;2023-11-21T05:18:47;8.00;;;2.38;;
79702;SDS011;69172;52.352;5.006;2023-11-21T05:21:14;12.05;;;2.67;;
79702;SDS011;69172;52.352;5.006;2023-11-21T05:23:40;8.75;;;2.65;;
79702;SDS011;69172;52.352;5.006;2023-11-21T05:26:05;10.52;;;2.53;;
79702;SDS011;69172;52.352;5.006;2023-11-21T05:28:30;12.10;;;3.03;;
79702;SDS011;69172;52.352;5.006;2023-11-21T05:30:56;10.27;;;2.80;;
79702;SDS011;69172;52.352;5.006;2023-11-21T05:33:21;11.60;;;3.08;;
79702;SDS011;69172;52.352;5.006;2023-11-21T05:35:46;9.48;;;3.78;;
79702;SDS011;69172;52.352;5.006;2023-11-21T05:38:13;14.85;;;4.85;;
79702;SDS011;69172;52.352;5.006;2023-11-21T05:40:41;9.65;;;3.60;;
79702;SDS011;69172;52.352;5.006;2023-11-21T05:43:06;12.43;;;3.85;;
79702;SDS011;69172;52.352;5.006;2023-11-21T05:45:32;24.20;;;5.63;;
79702;SDS011;69172;52.352;5.006;2023-11-21T05:47:58;11.48;;;3.90;;
79702;SDS011;69172;52.352;5.006;2023-11-21T05:50:24;11.65;;;3.65;;
79702;SDS011;69172;52.352;5.006;2023-11-21T05:52:50;12.63;;;3.72;;
79702;SDS011;69172;52.352;5.006;2023-11-21T05:55:15;14.57;;;3.47;;
79702;SDS011;69172;52.352;5.006;2023-11-21T05:57:41;15.70;;;3.50;;
79702;SDS011;69172;52.352;5.006;2023-11-21T06:00:13;10.70;;;4.05;;
79702;SDS011;69172;52.352;5.006;2023-11-21T06:02:47;13.98;;;3.35;;
79702;SDS011;69172;52.352;5.006;2023-11-21T06:05:18;10.18;;;3.25;;
79702;SDS011;69172;52.352;5.006;2023-11-21T06:07:44;12.13;;;3.63;;
79702;SDS011;69172;52.352;5.006;2023-11-21T06:10:10;14.63;;;3.25;;
79702;SDS011;69172;52.352;5.006;2023-11-21T06:12:37;14.88;;;3.58;;
79702;SDS011;69172;52.352;5.006;2023-11-21T06:15:05;14.48;;;4.30;;
79702;SDS011;69172;52.352;5.006;2023-11-21T06:17:33;12.32;;;3.63;;
79702;SDS011;69172;52.352;5.006;2023-11-21T06:23:27;12.93;;;4.03;;
79702;SDS011;69172;52.352;5.006;2023-11-21T06:28:40;13.85;;;4.10;;
79702;SDS011;69172;52.352;5.006;2023-11-21T06:31:06;13.40;;;4.00;;
79702;SDS011;69172;52.352;5.006;2023-11-21T06:33:32;13.90;;;4.43;;
79702;SDS011;69172;52.352;5.006;2023-11-21T06:35:57;12.40;;;4.30;;
79702;SDS011;69172;52.352;5.006;2023-11-21T06:38:23;17.45;;;4.32;;
79702;SDS011;69172;52.352;5.006;2023-11-21T06:40:48;13.73;;;4.18;;
79702;SDS011;69172;52.352;5.006;2023-11-21T06:43:15;17.48;;;5.43;;
79702;SDS011;69172;52.352;5.006;2023-11-21T06:45:40;14.82;;;4.80;;
79702;SDS011;69172;52.352;5.006;2023-11-21T06:48:07;16.65;;;5.05;;
79702;SDS011;69172;52.352;5.006;2023-11-21T06:50:32;16.02;;;5.35;;
79702;SDS011;69172;52.352;5.006;2023-11-21T06:52:57;12.73;;;4.47;;
79702;SDS011;69172;52.352;5.006;2023-11-21T06:55:23;15.02;;;4.55;;
79702;SDS011;69172;52.352;5.006;2023-11-21T06:57:48;16.15;;;5.80;;
79702;SDS011;69172;52.352;5.006;2023-11-21T07:00:15;14.25;;;5.38;;
79702;SDS011;69172;52.352;5.006;2023-11-21T07:02:42;15.93;;;5.80;;
79702;SDS011;69172;52.352;5.006;2023-11-21T07:05:08;15.52;;;5.38;;
79702;SDS011;69172;52.352;5.006;2023-11-21T07:07:34;15.20;;;4.85;;
79702;SDS011;69172;52.352;5.006;2023-11-21T07:10:01;15.88;;;5.28;;
79702;SDS011;69172;52.352;5.006;2023-11-21T07:12:28;16.30;;;4.95;;
79702;SDS011;69172;52.352;5.006;2023-11-21T07:14:56;16.25;;;5.03;;
79702;SDS011;69172;52.352;5.006;2023-11-21T07:17:23;16.27;;;5.93;;
79702;SDS011;69172;52.352;5.006;2023-11-21T07:19:49;13.50;;;5.32;;
79702;SDS011;69172;52.352;5.006;2023-11-21T07:22:16;16.02;;;5.40;;
79702;SDS011;69172;52.352;5.006;2023-11-21T07:24:48;15.35;;;5.57;;
79702;SDS011;69172;52.352;5.006;2023-11-21T07:27:17;21.58;;;5.90;;
79702;SDS011;69172;52.352;5.006;2023-11-21T07:29:42;22.17;;;7.38;;
79702;SDS011;69172;52.352;5.006;2023-11-21T07:32:08;15.98;;;5.43;;
79702;SDS011;69172;52.352;5.006;2023-11-21T07:34:36;18.95;;;5.93;;
79702;SDS011;69172;52.352;5.006;2023-11-21T07:37:02;16.73;;;5.93;;
79702;SDS011;69172;52.352;5.006;2023-11-21T07:39:34;17.90;;;5.97;;
79702;SDS011;69172;52.352;5.006;2023-11-21T07:42:01;15.35;;;5.20;;
79702;SDS011;69172;52.352;5.006;2023-11-21T07:44:27;16.52;;;4.97;;
79702;SDS011;69172;52.352;5.006;2023-11-21T07:46:53;18.33;;;5.28;;
79702;SDS011;69172;52.352;5.006;2023-11-21T07:49:22;16.40;;;5.03;;
79702;SDS011;69172;52.352;5.006;2023-11-21T07:51:48;15.55;;;4.43;;
79702;SDS011;69172;52.352;5.006;2023-11-21T07:54:13;17.50;;;4.65;;
79702;SDS011;69172;52.352;5.006;2023-11-21T07:56:39;13.15;;;4.20;;
79702;SDS011;69172;52.352;5.006;2023-11-21T07:59:04;12.43;;;4.20;;
79702;SDS011;69172;52.352;5.006;2023-11-21T08:01:31;14.82;;;5.05;;
79702;SDS011;69172;52.352;5.006;2023-11-21T08:03:56;18.08;;;5.03;;
79702;SDS011;69172;52.352;5.006;2023-11-21T08:06:26;15.30;;;5.38;;
79702;SDS011;69172;52.352;5.006;2023-11-21T08:08:52;11.60;;;4.10;;
79702;SDS011;69172;52.352;5.006;2023-11-21T08:11:17;11.32;;;4.03;;
79702;SDS011;69172;52.352;5.006;2023-11-21T08:13:42;12.60;;;4.45;;
79702;SDS011;69172;52.352;5.006;2023-11-21T08:16:08;13.93;;;4.55;;
79702;SDS011;69172;52.352;5.006;2023-11-21T08:18:33;16.30;;;4.75;;
79702;SDS011;69172;52.352;5.006;2023-11-21T08:20:59;16.08;;;4.90;;
79702;SDS011;69172;52.352;5.006;2023-11-21T08:23:25;14.38;;;5.28;;
79702;SDS011;69172;52.352;5.006;2023-11-21T08:25:51;15.20;;;5.10;;
79702;SDS011;69172;52.352;5.006;2023-11-21T08:28:17;17.73;;;5.68;;
79702;SDS011;69172;52.352;5.006;2023-11-21T08:30:43;15.35;;;5.43;;
79702;SDS011;69172;52.352;5.006;2023-11-21T08:33:09;18.38;;;6.07;;
79702;SDS011;69172;52.352;5.006;2023-11-21T08:35:36;15.45;;;5.55;;
79702;SDS011;69172;52.352;5.006;2023-11-21T08:38:02;16.10;;;6.47;;
79702;SDS011;69172;52.352;5.006;2023-11-21T08:40:28;14.38;;;5.38;;
79702;SDS011;69172;52.352;5.006;2023-11-21T08:42:53;16.05;;;5.43;;
79702;SDS011;69172;52.352;5.006;2023-11-21T08:45:20;15.23;;;5.32;;
79702;SDS011;69172;52.352;5.006;2023-11-21T08:47:47;13.65;;;5.13;;
79702;SDS011;69172;52.352;5.006;2023-11-21T08:50:12;15.30;;;4.93;;
79702;SDS011;69172;52.352;5.006;2023-11-21T08:52:39;13.48;;;5.88;;
79702;SDS011;69172;52.352;5.006;2023-11-21T08:55:05;16.88;;;5.68;;
79702;SDS011;69172;52.352;5.006;2023-11-21T08:57:34;17.67;;;6.25;;
79702;SDS011;69172;52.352;5.006;2023-11-21T09:00:01;16.50;;;6.63;;
79702;SDS011;69172;52.352;5.006;2023-11-21T09:02:27;17.55;;;6.15;;
79702;SDS011;69172;52.352;5.006;2023-11-21T09:04:52;14.68;;;5.75;;
79702;SDS011;69172;52.352;5.006;2023-11-21T09:07:18;18.25;;;6.82;;
79702;SDS011;69172;52.352;5.006;2023-11-21T09:09:46;15.73;;;5.90;;
79702;SDS011;69172;52.352;5.006;2023-11-21T09:12:12;15.90;;;6.95;;
79702;SDS011;69172;52.352;5.006;2023-11-21T09:14:38;17.67;;;7.80;;
79702;SDS011;69172;52.352;5.006;2023-11-21T09:17:04;24.90;;;8.23;;
79702;SDS011;69172;52.352;5.006;2023-11-21T09:19:37;24.67;;;8.75;;
79702;SDS011;69172;52.352;5.006;2023-11-21T09:22:03;23.50;;;9.27;;
79702;SDS011;69172;52.352;5.006;2023-11-21T09:24:31;23.98;;;10.07;;
79702;SDS011;69172;52.352;5.006;2023-11-21T09:26:57;26.23;;;9.85;;
79702;SDS011;69172;52.352;5.006;2023-11-21T09:29:22;21.92;;;8.20;;
79702;SDS011;69172;52.352;5.006;2023-11-21T09:31:48;25.45;;;9.00;;
79702;SDS011;69172;52.352;5.006;2023-11-21T09:34:18;20.75;;;8.05;;
79702;SDS011;69172;52.352;5.006;2023-11-21T09:36:46;15.73;;;7.70;;
79702;SDS011;69172;52.352;5.006;2023-11-21T09:39:12;18.67;;;7.00;;
79702;SDS011;69172;52.352;5.006;2023-11-21T09:41:46;18.33;;;6.63;;
79702;SDS011;69172;52.352;5.006;2023-11-21T09:44:17;26.35;;;7.90;;
79702;SDS011;69172;52.352;5.006;2023-11-21T09:46:47;22.85;;;8.38;;
79702;SDS011;69172;52.352;5.006;2023-11-21T09:49:14;21.83;;;8.30;;
79702;SDS011;69172;52.352;5.006;2023-11-21T09:51:43;19.40;;;7.45;;
79702;SDS011;69172;52.352;5.006;2023-11-21T09:54:09;20.60;;;8.07;;
79702;SDS011;69172;52.352;5.006;2023-11-21T09:56:39;18.98;;;8.10;;
79702;SDS011;69172;52.352;5.006;2023-11-21T09:59:04;18.38;;;6.65;;
79702;SDS011;69172;52.352;5.006;2023-11-21T10:01:34;22.20;;;7.80;;
79702;SDS011;69172;52.352;5.006;2023-11-21T10:04:01;19.02;;;6.88;;
79702;SDS011;69172;52.352;5.006;2023-11-21T10:06:26;16.77;;;7.05;;
79702;SDS011;69172;52.352;5.006;2023-11-21T10:08:54;21.45;;;7.43;;
79702;SDS011;69172;52.352;5.006;2023-11-21T10:11:23;15.77;;;6.05;;
79702;SDS011;69172;52.352;5.006;2023-11-21T10:13:51;18.90;;;6.75;;
79702;SDS011;69172;52.352;5.006;2023-11-21T10:16:19;18.48;;;7.38;;
79702;SDS011;69172;52.352;5.006;2023-11-21T10:18:48;21.15;;;7.38;;
79702;SDS011;69172;52.352;5.006;2023-11-21T10:21:17;19.90;;;7.30;;
79702;SDS011;69172;52.352;5.006;2023-11-21T10:23:43;23.95;;;9.40;;
79702;SDS011;69172;52.352;5.006;2023-11-21T10:26:09;21.60;;;8.60;;
79702;SDS011;69172;52.352;5.006;2023-11-21T10:29:03;24.48;;;8.32;;
79702;SDS011;69172;52.352;5.006;2023-11-21T10:31:31;24.80;;;8.93;;
79702;SDS011;69172;52.352;5.006;2023-11-21T10:37:13;24.50;;;9.02;;
79702;SDS011;69172;52.352;5.006;2023-11-21T10:39:44;30.35;;;9.45;;
79702;SDS011;69172;52.352;5.006;2023-11-21T10:42:10;27.35;;;9.38;;
79702;SDS011;69172;52.352;5.006;2023-11-21T10:44:36;27.73;;;9.88;;
79702;SDS011;69172;52.352;5.006;2023-11-21T10:47:01;24.85;;;9.65;;
79702;SDS011;69172;52.352;5.006;2023-11-21T10:49:27;31.27;;;11.00;;
79702;SDS011;69172;52.352;5.006;2023-11-21T10:51:54;30.23;;;10.95;;
79702;SDS011;69172;52.352;5.006;2023-11-21T10:54:20;26.45;;;9.50;;
79702;SDS011;69172;52.352;5.006;2023-11-21T10:56:46;26.65;;;9.07;;
79702;SDS011;69172;52.352;5.006;2023-11-21T10:59:16;22.10;;;9.15;;
79702;SDS011;69172;52.352;5.006;2023-11-21T11:01:42;27.73;;;8.93;;
79702;SDS011;69172;52.352;5.006;2023-11-21T11:04:10;28.13;;;9.65;;
79702;SDS011;69172;52.352;5.006;2023-11-21T11:06:42;25.05;;;9.48;;
79702;SDS011;69172;52.352;5.006;2023-11-21T11:09:10;28.58;;;11.27;;
79702;SDS011;69172;52.352;5.006;2023-11-21T11:11:41;29.95;;;10.70;;
79702;SDS011;69172;52.352;5.006;2023-11-21T11:14:10;29.90;;;11.05;;
79702;SDS011;69172;52.352;5.006;2023-11-21T11:16:37;28.77;;;10.23;;
79702;SDS011;69172;52.352;5.006;2023-11-21T11:19:09;23.90;;;9.90;;
79702;SDS011;69172;52.352;5.006;2023-11-21T11:38:33;19.90;;;6.60;;
79702;SDS011;69172;52.352;5.006;2023-11-21T11:41:04;16.13;;;6.40;;
79702;SDS011;69172;52.352;5.006;2023-11-21T11:43:30;15.43;;;6.50;;
79702;SDS011;69172;52.352;5.006;2023-11-21T11:46:10;14.27;;;6.32;;
79702;SDS011;69172;52.352;5.006;2023-11-21T11:48:40;17.45;;;7.28;;
79702;SDS011;69172;52.352;5.006;2023-11-21T11:51:12;18.08;;;6.95;;
79702;SDS011;69172;52.352;5.006;2023-11-21T11:53:48;15.10;;;6.45;;
79702;SDS011;69172;52.352;5.006;2023-11-21T11:56:21;18.70;;;7.25;;
79702;SDS011;69172;52.352;5.006;2023-11-21T11:58:52;15.40;;;8.13;;
79702;SDS011;69172;52.352;5.006;2023-11-21T12:01:19;17.02;;;7.03;;
79702;SDS011;69172;52.352;5.006;2023-11-21T12:04:21;19.40;;;7.75;;
79702;SDS011;69172;52.352;5.006;2023-11-21T12:06:42;18.40;;;7.15;;
79702;SDS011;69172;52.352;5.006;2023-11-21T12:09:17;16.60;;;7.07;;
79702;SDS011;69172;52.352;5.006;2023-11-21T12:11:43;20.88;;;7.80;;
79702;SDS011;69172;52.352;5.006;2023-11-21T12:14:09;17.73;;;7.85;;
79702;SDS011;69172;52.352;5.006;2023-11-21T12:16:34;16.42;;;7.32;;
79702;SDS011;69172;52.352;5.006;2023-11-21T12:19:00;20.13;;;7.55;;
79702;SDS011;69172;52.352;5.006;2023-11-21T12:21:27;18.90;;;7.72;;
79702;SDS011;69172;52.352;5.006;2023-11-21T12:23:53;18.45;;;7.50;;
79702;SDS011;69172;52.352;5.006;2023-11-21T12:26:18;19.35;;;7.55;;
79702;SDS011;69172;52.352;5.006;2023-11-21T12:28:51;17.75;;;8.35;;
79702;SDS011;69172;52.352;5.006;2023-11-21T12:31:19;18.42;;;8.43;;
79702;SDS011;69172;52.352;5.006;2023-11-21T12:33:46;21.80;;;9.10;;
79702;SDS011;69172;52.352;5.006;2023-11-21T12:36:11;19.98;;;8.05;;
79702;SDS011;69172;52.352;5.006;2023-11-21T12:38:36;19.33;;;8.32;;
79702;SDS011;69172;52.352;5.006;2023-11-21T12:41:02;19.75;;;8.38;;
79702;SDS011;69172;52.352;5.006;2023-11-21T12:43:28;23.60;;;9.43;;
79702;SDS011;69172;52.352;5.006;2023-11-21T12:46:06;20.48;;;9.75;;
79702;SDS011;69172;52.352;5.006;2023-11-21T12:48:34;21.90;;;10.02;;
79702;SDS011;69172;52.352;5.006;2023-11-21T12:51:04;22.33;;;9.18;;
79702;SDS011;69172;52.352;5.006;2023-11-21T12:53:29;20.00;;;9.50;;
79702;SDS011;69172;52.352;5.006;2023-11-21T12:58:38;20.10;;;8.15;;
79702;SDS011;69172;52.352;5.006;2023-11-21T13:01:06;20.88;;;9.60;;
79702;SDS011;69172;52.352;5.006;2023-11-21T13:03:38;18.95;;;8.65;;
79702;SDS011;69172;52.352;5.006;2023-11-21T13:06:05;17.77;;;7.55;;
79702;SDS011;69172;52.352;5.006;2023-11-21T13:08:39;16.27;;;7.13;;
79702;SDS011;69172;52.352;5.006;2023-11-21T13:11:05;18.60;;;7.45;;
79702;SDS011;69172;52.352;5.006;2023-11-21T13:13:32;19.25;;;7.55;;
79702;SDS011;69172;52.352;5.006;2023-11-21T13:15:59;17.15;;;7.05;;
79702;SDS011;69172;52.352;5.006;2023-11-21T13:18:26;17.80;;;7.55;;
79702;SDS011;69172;52.352;5.006;2023-11-21T13:20:56;19.42;;;7.57;;
79702;SDS011;69172;52.352;5.006;2023-11-21T13:23:23;16.25;;;7.00;;
79702;SDS011;69172;52.352;5.006;2023-11-21T13:25:52;19.20;;;7.20;;
79702;SDS011;69172;52.352;5.006;2023-11-21T13:28:18;17.77;;;7.63;;
79702;SDS011;69172;52.352;5.006;2023-11-21T13:30:46;16.05;;;6.93;;
79702;SDS011;69172;52.352;5.006;2023-11-21T13:33:15;17.73;;;7.75;;
79702;SDS011;69172;52.352;5.006;2023-11-21T13:35:47;17.40;;;7.38;;
79702;SDS011;69172;52.352;5.006;2023-11-21T13:38:15;19.83;;;7.50;;
79702;SDS011;69172;52.352;5.006;2023-11-21T13:40:49;17.70;;;7.72;;
79702;SDS011;69172;52.352;5.006;2023-11-21T13:43:18;18.45;;;8.43;;
79702;SDS011;69172;52.352;5.006;2023-11-21T13:45:45;19.15;;;9.43;;
79702;SDS011;69172;52.352;5.006;2023-11-21T13:48:12;17.52;;;8.15;;
79702;SDS011;69172;52.352;5.006;2023-11-21T13:50:41;18.20;;;7.93;;
79702;SDS011;69172;52.352;5.006;2023-11-21T13:53:33;15.85;;;6.75;;
79702;SDS011;69172;52.352;5.006;2023-11-21T13:56:01;14.73;;;6.70;;
79702;SDS011;69172;52.352;5.006;2023-11-21T13:58:27;13.68;;;6.53;;
79702;SDS011;69172;52.352;5.006;2023-11-21T14:01:15;15.05;;;7.00;;
79702;SDS011;69172;52.352;5.006;2023-11-21T14:03:53;17.40;;;7.95;;
79702;SDS011;69172;52.352;5.006;2023-11-21T14:06:24;21.52;;;10.00;;
79702;SDS011;69172;52.352;5.006;2023-11-21T14:08:57;21.90;;;9.15;;
79702;SDS011;69172;52.352;5.006;2023-11-21T14:11:23;20.83;;;9.60;;
79702;SDS011;69172;52.352;5.006;2023-11-21T14:13:49;22.10;;;10.05;;
79702;SDS011;69172;52.352;5.006;2023-11-21T14:16:15;17.77;;;9.30;;
79702;SDS011;69172;52.352;5.006;2023-11-21T14:18:42;19.50;;;10.18;;
79702;SDS011;69172;52.352;5.006;2023-11-21T14:23:45;19.38;;;9.38;;
79702;SDS011;69172;52.352;5.006;2023-11-21T14:26:13;19.58;;;9.70;;
79702;SDS011;69172;52.352;5.006;2023-11-21T14:28:40;21.38;;;8.75;;
79702;SDS011;69172;52.352;5.006;2023-11-21T14:31:06;17.98;;;8.00;;
79702;SDS011;69172;52.352;5.006;2023-11-21T14:33:32;18.67;;;8.60;;
79702;SDS011;69172;52.352;5.006;2023-11-21T14:35:58;16.88;;;8.27;;
79702;SDS011;69172;52.352;5.006;2023-11-21T14:38:25;15.77;;;7.78;;
79702;SDS011;69172;52.352;5.006;2023-11-21T14:40:50;18.52;;;9.10;;
79702;SDS011;69172;52.352;5.006;2023-11-21T14:43:16;15.75;;;7.68;;
79702;SDS011;69172;52.352;5.006;2023-11-21T14:45:44;14.50;;;7.38;;
79702;SDS011;69172;52.352;5.006;2023-11-21T14:48:09;18.38;;;8.25;;
79702;SDS011;69172;52.352;5.006;2023-11-21T14:50:56;17.02;;;8.00;;
79702;SDS011;69172;52.352;5.006;2023-11-21T14:53:27;14.75;;;7.90;;
79702;SDS011;69172;52.352;5.006;2023-11-21T14:56:18;16.67;;;8.55;;
79702;SDS011;69172;52.352;5.006;2023-11-21T14:58:53;18.98;;;9.48;;
79702;SDS011;69172;52.352;5.006;2023-11-21T15:01:20;16.95;;;9.15;;
79702;SDS011;69172;52.352;5.006;2023-11-21T15:04:00;17.42;;;8.63;;
79702;SDS011;69172;52.352;5.006;2023-11-21T15:06:26;13.57;;;6.90;;